Carolina Hills, North Carolina
Current Conditions -  °F | °C
As of 7:54 PM on Saturday 25 Oct 2014 (Local Time) from KAVL Reporting Station
Few Clouds Few Clouds  
Wind Chill: 59°   Ceiling: Unl
Heat Index: 59°   Visibility: 10mi
Dew Point: 45°   Wind: 5mph
Humidity: 60%   Direction: 300°WNW
Pressure: 30.04"   Gusts: NA
Location:  35.4492°N, 82.4624°W
Report Text: KAVL 252354Z 30004KT 10SM FEW048 15/07 A3004 RMK AO2 SLP166 T01500072 10217 20150 53010
Loading
Personal Weather Stations






























Interactive Weather Map
Tropical Storm Tracking
New forecast layout! Learn more

10-Day Weather Forecast

Advertisements
Track Severe Weather on mobile